sensor_id;sensor_type;location;lat;lon;timestamp;P1;durP1;ratioP1;P2;durP2;ratioP2
23370;SDS011;11858;51.056;3.712;2022-08-03T00:01:42;20.50;;;14.35;;
23370;SDS011;11858;51.056;3.712;2022-08-03T00:04:08;20.05;;;14.13;;
23370;SDS011;11858;51.056;3.712;2022-08-03T00:06:35;20.02;;;14.15;;
23370;SDS011;11858;51.056;3.712;2022-08-03T00:09:02;17.20;;;14.50;;
23370;SDS011;11858;51.056;3.712;2022-08-03T00:11:29;16.15;;;13.85;;
23370;SDS011;11858;51.056;3.712;2022-08-03T00:13:54;16.92;;;14.57;;
23370;SDS011;11858;51.056;3.712;2022-08-03T00:16:20;17.15;;;14.82;;
23370;SDS011;11858;51.056;3.712;2022-08-03T00:18:46;19.02;;;14.38;;
23370;SDS011;11858;51.056;3.712;2022-08-03T00:21:12;15.02;;;13.63;;
23370;SDS011;11858;51.056;3.712;2022-08-03T00:23:38;17.83;;;14.10;;
23370;SDS011;11858;51.056;3.712;2022-08-03T00:26:03;15.48;;;13.98;;
23370;SDS011;11858;51.056;3.712;2022-08-03T00:28:29;16.98;;;13.48;;
23370;SDS011;11858;51.056;3.712;2022-08-03T00:30:55;18.77;;;13.43;;
23370;SDS011;11858;51.056;3.712;2022-08-03T00:33:21;15.13;;;13.68;;
23370;SDS011;11858;51.056;3.712;2022-08-03T00:35:47;16.80;;;14.10;;
23370;SDS011;11858;51.056;3.712;2022-08-03T00:38:13;15.80;;;14.20;;
23370;SDS011;11858;51.056;3.712;2022-08-03T00:40:39;15.13;;;13.63;;
23370;SDS011;11858;51.056;3.712;2022-08-03T00:43:05;15.80;;;13.40;;
23370;SDS011;11858;51.056;3.712;2022-08-03T00:45:36;14.50;;;13.23;;
23370;SDS011;11858;51.056;3.712;2022-08-03T00:48:06;14.77;;;13.05;;
23370;SDS011;11858;51.056;3.712;2022-08-03T00:50:34;17.08;;;13.88;;
23370;SDS011;11858;51.056;3.712;2022-08-03T00:53:04;17.70;;;13.50;;
23370;SDS011;11858;51.056;3.712;2022-08-03T00:55:31;26.25;;;14.07;;
23370;SDS011;11858;51.056;3.712;2022-08-03T00:57:57;18.05;;;13.90;;
23370;SDS011;11858;51.056;3.712;2022-08-03T01:00:25;14.90;;;13.40;;
23370;SDS011;11858;51.056;3.712;2022-08-03T01:02:52;16.77;;;13.50;;
23370;SDS011;11858;51.056;3.712;2022-08-03T01:05:18;18.50;;;13.68;;
23370;SDS011;11858;51.056;3.712;2022-08-03T01:08:00;16.60;;;14.25;;
23370;SDS011;11858;51.056;3.712;2022-08-03T01:13:27;17.27;;;13.98;;
23370;SDS011;11858;51.056;3.712;2022-08-03T01:18:57;15.43;;;13.73;;
23370;SDS011;11858;51.056;3.712;2022-08-03T01:21:33;15.65;;;14.05;;
23370;SDS011;11858;51.056;3.712;2022-08-03T01:27:07;16.08;;;13.88;;
23370;SDS011;11858;51.056;3.712;2022-08-03T01:30:06;15.45;;;13.43;;
23370;SDS011;11858;51.056;3.712;2022-08-03T01:32:34;16.33;;;13.45;;
23370;SDS011;11858;51.056;3.712;2022-08-03T01:35:08;15.70;;;14.23;;
23370;SDS011;11858;51.056;3.712;2022-08-03T01:37:44;18.13;;;13.73;;
23370;SDS011;11858;51.056;3.712;2022-08-03T01:40:15;15.20;;;13.68;;
23370;SDS011;11858;51.056;3.712;2022-08-03T01:42:43;18.58;;;13.77;;
23370;SDS011;11858;51.056;3.712;2022-08-03T01:45:11;15.40;;;13.80;;
23370;SDS011;11858;51.056;3.712;2022-08-03T01:47:38;15.48;;;13.25;;
23370;SDS011;11858;51.056;3.712;2022-08-03T01:50:06;18.92;;;13.35;;
23370;SDS011;11858;51.056;3.712;2022-08-03T01:52:34;15.13;;;13.57;;
23370;SDS011;11858;51.056;3.712;2022-08-03T01:55:05;15.57;;;13.73;;
23370;SDS011;11858;51.056;3.712;2022-08-03T01:57:32;14.70;;;13.25;;
23370;SDS011;11858;51.056;3.712;2022-08-03T01:59:59;16.88;;;12.82;;
23370;SDS011;11858;51.056;3.712;2022-08-03T02:02:25;14.73;;;13.13;;
23370;SDS011;11858;51.056;3.712;2022-08-03T02:04:53;15.43;;;13.77;;
23370;SDS011;11858;51.056;3.712;2022-08-03T02:07:21;18.63;;;13.85;;
23370;SDS011;11858;51.056;3.712;2022-08-03T02:09:50;14.98;;;13.50;;
23370;SDS011;11858;51.056;3.712;2022-08-03T02:12:18;15.25;;;13.82;;
23370;SDS011;11858;51.056;3.712;2022-08-03T02:14:46;15.43;;;13.35;;
23370;SDS011;11858;51.056;3.712;2022-08-03T02:17:14;18.05;;;14.00;;
23370;SDS011;11858;51.056;3.712;2022-08-03T02:19:41;15.63;;;13.52;;
23370;SDS011;11858;51.056;3.712;2022-08-03T02:22:08;16.70;;;13.50;;
23370;SDS011;11858;51.056;3.712;2022-08-03T02:24:35;14.80;;;13.30;;
23370;SDS011;11858;51.056;3.712;2022-08-03T02:27:02;15.50;;;13.82;;
23370;SDS011;11858;51.056;3.712;2022-08-03T02:29:35;14.10;;;12.68;;
23370;SDS011;11858;51.056;3.712;2022-08-03T02:32:03;17.73;;;13.23;;
23370;SDS011;11858;51.056;3.712;2022-08-03T02:34:30;15.27;;;13.45;;
23370;SDS011;11858;51.056;3.712;2022-08-03T02:36:59;18.50;;;13.02;;
23370;SDS011;11858;51.056;3.712;2022-08-03T02:39:27;17.70;;;13.80;;
23370;SDS011;11858;51.056;3.712;2022-08-03T02:41:55;14.15;;;12.85;;
23370;SDS011;11858;51.056;3.712;2022-08-03T02:44:26;16.30;;;12.85;;
23370;SDS011;11858;51.056;3.712;2022-08-03T02:47:06;19.20;;;13.10;;
23370;SDS011;11858;51.056;3.712;2022-08-03T02:49:34;19.52;;;13.48;;
23370;SDS011;11858;51.056;3.712;2022-08-03T02:52:02;15.63;;;13.20;;
23370;SDS011;11858;51.056;3.712;2022-08-03T02:54:31;15.13;;;13.55;;
23370;SDS011;11858;51.056;3.712;2022-08-03T02:56:58;18.33;;;14.35;;
23370;SDS011;11858;51.056;3.712;2022-08-03T02:59:25;16.88;;;13.50;;
23370;SDS011;11858;51.056;3.712;2022-08-03T03:01:55;18.42;;;14.07;;
23370;SDS011;11858;51.056;3.712;2022-08-03T03:04:22;16.45;;;14.27;;
23370;SDS011;11858;51.056;3.712;2022-08-03T03:06:48;18.08;;;16.42;;
23370;SDS011;11858;51.056;3.712;2022-08-03T03:09:15;18.08;;;16.25;;
23370;SDS011;11858;51.056;3.712;2022-08-03T03:11:42;17.55;;;16.00;;
23370;SDS011;11858;51.056;3.712;2022-08-03T03:14:08;21.10;;;16.50;;
23370;SDS011;11858;51.056;3.712;2022-08-03T03:16:37;17.10;;;12.82;;
23370;SDS011;11858;51.056;3.712;2022-08-03T03:19:04;15.50;;;12.70;;
23370;SDS011;11858;51.056;3.712;2022-08-03T03:21:32;14.25;;;12.88;;
23370;SDS011;11858;51.056;3.712;2022-08-03T03:23:59;16.48;;;12.80;;
23370;SDS011;11858;51.056;3.712;2022-08-03T03:26:26;19.60;;;13.13;;
23370;SDS011;11858;51.056;3.712;2022-08-03T03:28:52;16.58;;;12.93;;
23370;SDS011;11858;51.056;3.712;2022-08-03T03:31:18;15.20;;;12.35;;
23370;SDS011;11858;51.056;3.712;2022-08-03T03:33:44;15.65;;;11.98;;
23370;SDS011;11858;51.056;3.712;2022-08-03T03:36:10;16.30;;;12.23;;
23370;SDS011;11858;51.056;3.712;2022-08-03T03:38:36;13.68;;;12.43;;
23370;SDS011;11858;51.056;3.712;2022-08-03T03:41:02;15.50;;;12.40;;
23370;SDS011;11858;51.056;3.712;2022-08-03T03:43:29;20.63;;;13.55;;
23370;SDS011;11858;51.056;3.712;2022-08-03T03:45:55;17.63;;;12.88;;
23370;SDS011;11858;51.056;3.712;2022-08-03T03:48:23;16.85;;;11.68;;
23370;SDS011;11858;51.056;3.712;2022-08-03T03:50:50;17.55;;;12.10;;
23370;SDS011;11858;51.056;3.712;2022-08-03T03:53:16;16.23;;;12.25;;
23370;SDS011;11858;51.056;3.712;2022-08-03T03:55:42;14.02;;;11.85;;
23370;SDS011;11858;51.056;3.712;2022-08-03T03:58:08;14.20;;;12.02;;
23370;SDS011;11858;51.056;3.712;2022-08-03T04:00:34;16.80;;;11.73;;
23370;SDS011;11858;51.056;3.712;2022-08-03T04:03:00;13.07;;;11.88;;
23370;SDS011;11858;51.056;3.712;2022-08-03T04:05:26;16.02;;;12.20;;
23370;SDS011;11858;51.056;3.712;2022-08-03T04:08:13;16.10;;;12.15;;
23370;SDS011;11858;51.056;3.712;2022-08-03T04:13:47;15.98;;;11.55;;
23370;SDS011;11858;51.056;3.712;2022-08-03T04:16:17;16.45;;;11.63;;
23370;SDS011;11858;51.056;3.712;2022-08-03T04:19:01;17.20;;;12.40;;
23370;SDS011;11858;51.056;3.712;2022-08-03T04:21:30;12.35;;;11.10;;
23370;SDS011;11858;51.056;3.712;2022-08-03T04:23:59;15.80;;;11.63;;
23370;SDS011;11858;51.056;3.712;2022-08-03T04:26:28;14.73;;;11.40;;
23370;SDS011;11858;51.056;3.712;2022-08-03T04:28:58;17.25;;;11.57;;
23370;SDS011;11858;51.056;3.712;2022-08-03T04:31:25;18.40;;;11.52;;
23370;SDS011;11858;51.056;3.712;2022-08-03T04:33:53;18.63;;;11.35;;
23370;SDS011;11858;51.056;3.712;2022-08-03T04:36:24;17.13;;;11.75;;
23370;SDS011;11858;51.056;3.712;2022-08-03T04:39:02;13.02;;;11.80;;
23370;SDS011;11858;51.056;3.712;2022-08-03T04:41:32;17.17;;;11.50;;
23370;SDS011;11858;51.056;3.712;2022-08-03T04:44:00;15.55;;;12.38;;
23370;SDS011;11858;51.056;3.712;2022-08-03T04:46:33;16.50;;;12.00;;
23370;SDS011;11858;51.056;3.712;2022-08-03T04:49:02;17.80;;;10.82;;
23370;SDS011;11858;51.056;3.712;2022-08-03T04:51:29;15.25;;;11.60;;
23370;SDS011;11858;51.056;3.712;2022-08-03T04:53:56;13.30;;;11.90;;
23370;SDS011;11858;51.056;3.712;2022-08-03T04:56:22;16.90;;;11.20;;
23370;SDS011;11858;51.056;3.712;2022-08-03T04:58:47;16.73;;;11.30;;
23370;SDS011;11858;51.056;3.712;2022-08-03T05:01:14;13.00;;;11.73;;
23370;SDS011;11858;51.056;3.712;2022-08-03T05:03:40;18.75;;;11.90;;
23370;SDS011;11858;51.056;3.712;2022-08-03T05:06:06;16.85;;;11.32;;
23370;SDS011;11858;51.056;3.712;2022-08-03T05:08:32;16.63;;;12.40;;
23370;SDS011;11858;51.056;3.712;2022-08-03T05:10:57;17.25;;;11.77;;
23370;SDS011;11858;51.056;3.712;2022-08-03T05:13:23;20.50;;;11.38;;
23370;SDS011;11858;51.056;3.712;2022-08-03T05:15:49;18.63;;;12.35;;
23370;SDS011;11858;51.056;3.712;2022-08-03T05:18:15;16.75;;;11.23;;
23370;SDS011;11858;51.056;3.712;2022-08-03T05:20:41;19.73;;;11.43;;
23370;SDS011;11858;51.056;3.712;2022-08-03T05:23:06;18.67;;;10.90;;
23370;SDS011;11858;51.056;3.712;2022-08-03T05:25:32;14.25;;;11.65;;
23370;SDS011;11858;51.056;3.712;2022-08-03T05:27:58;16.85;;;11.38;;
23370;SDS011;11858;51.056;3.712;2022-08-03T05:30:24;13.55;;;10.70;;
23370;SDS011;11858;51.056;3.712;2022-08-03T05:32:50;16.05;;;11.90;;
23370;SDS011;11858;51.056;3.712;2022-08-03T05:35:15;13.00;;;10.95;;
23370;SDS011;11858;51.056;3.712;2022-08-03T05:37:41;17.30;;;12.60;;
23370;SDS011;11858;51.056;3.712;2022-08-03T05:40:07;13.80;;;10.93;;
23370;SDS011;11858;51.056;3.712;2022-08-03T05:42:35;16.55;;;10.93;;
23370;SDS011;11858;51.056;3.712;2022-08-03T05:45:05;16.50;;;11.70;;
23370;SDS011;11858;51.056;3.712;2022-08-03T05:47:41;19.95;;;11.02;;
23370;SDS011;11858;51.056;3.712;2022-08-03T05:50:09;16.52;;;11.35;;
23370;SDS011;11858;51.056;3.712;2022-08-03T05:52:36;13.57;;;11.82;;
23370;SDS011;11858;51.056;3.712;2022-08-03T05:55:03;14.52;;;11.43;;
23370;SDS011;11858;51.056;3.712;2022-08-03T05:57:32;19.35;;;11.32;;
23370;SDS011;11858;51.056;3.712;2022-08-03T05:59:58;14.80;;;11.40;;
23370;SDS011;11858;51.056;3.712;2022-08-03T06:02:26;15.27;;;11.68;;
23370;SDS011;11858;51.056;3.712;2022-08-03T06:04:52;20.58;;;11.82;;
23370;SDS011;11858;51.056;3.712;2022-08-03T06:07:18;19.70;;;12.25;;
23370;SDS011;11858;51.056;3.712;2022-08-03T06:09:43;24.33;;;11.93;;
23370;SDS011;11858;51.056;3.712;2022-08-03T06:12:09;18.17;;;12.30;;
23370;SDS011;11858;51.056;3.712;2022-08-03T06:14:35;17.33;;;11.50;;
23370;SDS011;11858;51.056;3.712;2022-08-03T06:17:01;18.70;;;12.45;;
23370;SDS011;11858;51.056;3.712;2022-08-03T06:19:27;17.88;;;11.52;;
23370;SDS011;11858;51.056;3.712;2022-08-03T06:21:53;12.93;;;11.10;;
23370;SDS011;11858;51.056;3.712;2022-08-03T06:24:19;17.10;;;11.20;;
23370;SDS011;11858;51.056;3.712;2022-08-03T06:26:44;26.10;;;12.20;;
23370;SDS011;11858;51.056;3.712;2022-08-03T06:29:10;13.32;;;11.05;;
23370;SDS011;11858;51.056;3.712;2022-08-03T06:31:36;20.77;;;11.40;;
23370;SDS011;11858;51.056;3.712;2022-08-03T06:34:03;22.90;;;12.02;;
23370;SDS011;11858;51.056;3.712;2022-08-03T06:36:29;20.85;;;11.35;;
23370;SDS011;11858;51.056;3.712;2022-08-03T06:38:59;25.20;;;11.52;;
23370;SDS011;11858;51.056;3.712;2022-08-03T06:41:26;18.83;;;11.23;;
23370;SDS011;11858;51.056;3.712;2022-08-03T06:43:52;20.83;;;11.60;;
23370;SDS011;11858;51.056;3.712;2022-08-03T06:46:19;24.27;;;10.95;;
23370;SDS011;11858;51.056;3.712;2022-08-03T06:48:45;17.67;;;11.50;;
23370;SDS011;11858;51.056;3.712;2022-08-03T06:51:10;20.15;;;11.48;;
23370;SDS011;11858;51.056;3.712;2022-08-03T06:53:36;17.63;;;11.32;;
23370;SDS011;11858;51.056;3.712;2022-08-03T06:56:06;20.95;;;11.13;;
23370;SDS011;11858;51.056;3.712;2022-08-03T06:58:32;17.67;;;11.37;;
23370;SDS011;11858;51.056;3.712;2022-08-03T07:00:59;16.10;;;11.30;;
23370;SDS011;11858;51.056;3.712;2022-08-03T07:03:25;24.75;;;12.35;;
23370;SDS011;11858;51.056;3.712;2022-08-03T07:05:51;16.38;;;11.32;;
23370;SDS011;11858;51.056;3.712;2022-08-03T07:08:17;16.77;;;11.48;;
23370;SDS011;11858;51.056;3.712;2022-08-03T07:10:43;21.58;;;11.98;;
23370;SDS011;11858;51.056;3.712;2022-08-03T07:13:09;14.93;;;11.50;;
23370;SDS011;11858;51.056;3.712;2022-08-03T07:15:35;19.40;;;11.45;;
23370;SDS011;11858;51.056;3.712;2022-08-03T07:18:01;19.90;;;11.90;;
23370;SDS011;11858;51.056;3.712;2022-08-03T07:20:27;19.92;;;11.77;;
23370;SDS011;11858;51.056;3.712;2022-08-03T07:22:53;24.73;;;11.80;;
23370;SDS011;11858;51.056;3.712;2022-08-03T07:25:18;21.67;;;12.30;;
23370;SDS011;11858;51.056;3.712;2022-08-03T07:27:45;18.63;;;12.82;;
23370;SDS011;11858;51.056;3.712;2022-08-03T07:30:12;28.50;;;13.52;;
23370;SDS011;11858;51.056;3.712;2022-08-03T07:32:40;20.30;;;12.70;;
23370;SDS011;11858;51.056;3.712;2022-08-03T07:35:06;26.52;;;13.30;;
23370;SDS011;11858;51.056;3.712;2022-08-03T07:37:35;21.65;;;13.10;;
23370;SDS011;11858;51.056;3.712;2022-08-03T07:40:01;20.13;;;12.65;;
23370;SDS011;11858;51.056;3.712;2022-08-03T07:42:29;20.17;;;12.05;;
23370;SDS011;11858;51.056;3.712;2022-08-03T07:44:56;24.80;;;12.70;;
23370;SDS011;11858;51.056;3.712;2022-08-03T07:47:23;20.83;;;12.82;;
23370;SDS011;11858;51.056;3.712;2022-08-03T07:49:49;19.13;;;12.52;;
23370;SDS011;11858;51.056;3.712;2022-08-03T07:52:15;19.05;;;12.50;;
23370;SDS011;11858;51.056;3.712;2022-08-03T07:55:00;16.23;;;12.52;;
23370;SDS011;11858;51.056;3.712;2022-08-03T07:57:26;23.60;;;13.13;;
23370;SDS011;11858;51.056;3.712;2022-08-03T07:59:52;22.77;;;13.27;;
23370;SDS011;11858;51.056;3.712;2022-08-03T08:02:18;18.27;;;12.32;;
23370;SDS011;11858;51.056;3.712;2022-08-03T08:04:44;18.98;;;12.20;;
23370;SDS011;11858;51.056;3.712;2022-08-03T08:07:10;21.15;;;12.40;;
23370;SDS011;11858;51.056;3.712;2022-08-03T08:09:36;16.20;;;11.40;;
23370;SDS011;11858;51.056;3.712;2022-08-03T08:12:02;23.13;;;11.82;;
23370;SDS011;11858;51.056;3.712;2022-08-03T08:14:28;19.30;;;12.57;;
23370;SDS011;11858;51.056;3.712;2022-08-03T08:16:54;21.55;;;12.40;;
23370;SDS011;11858;51.056;3.712;2022-08-03T08:19:20;23.27;;;12.75;;
23370;SDS011;11858;51.056;3.712;2022-08-03T08:21:46;25.05;;;12.13;;
23370;SDS011;11858;51.056;3.712;2022-08-03T08:24:11;27.52;;;12.20;;
23370;SDS011;11858;51.056;3.712;2022-08-03T08:26:37;22.17;;;11.60;;
23370;SDS011;11858;51.056;3.712;2022-08-03T08:29:03;21.00;;;12.10;;
23370;SDS011;11858;51.056;3.712;2022-08-03T08:31:30;27.70;;;12.50;;
23370;SDS011;11858;51.056;3.712;2022-08-03T08:33:56;24.02;;;11.50;;
23370;SDS011;11858;51.056;3.712;2022-08-03T08:36:22;20.77;;;12.80;;
23370;SDS011;11858;51.056;3.712;2022-08-03T08:38:49;25.15;;;12.63;;
23370;SDS011;11858;51.056;3.712;2022-08-03T08:41:15;17.63;;;12.48;;
23370;SDS011;11858;51.056;3.712;2022-08-03T08:43:41;17.60;;;11.75;;
23370;SDS011;11858;51.056;3.712;2022-08-03T08:46:08;19.55;;;11.98;;
23370;SDS011;11858;51.056;3.712;2022-08-03T08:48:39;23.20;;;12.55;;
23370;SDS011;11858;51.056;3.712;2022-08-03T08:51:06;21.83;;;12.00;;
23370;SDS011;11858;51.056;3.712;2022-08-03T08:53:36;18.08;;;12.10;;
23370;SDS011;11858;51.056;3.712;2022-08-03T08:56:04;22.67;;;12.10;;
23370;SDS011;11858;51.056;3.712;2022-08-03T08:58:36;21.55;;;13.15;;
23370;SDS011;11858;51.056;3.712;2022-08-03T09:01:05;23.80;;;12.57;;
23370;SDS011;11858;51.056;3.712;2022-08-03T09:03:32;28.67;;;11.93;;
23370;SDS011;11858;51.056;3.712;2022-08-03T09:05:59;14.43;;;11.52;;
23370;SDS011;11858;51.056;3.712;2022-08-03T09:08:26;21.35;;;11.85;;
23370;SDS011;11858;51.056;3.712;2022-08-03T09:10:54;19.27;;;12.15;;
23370;SDS011;11858;51.056;3.712;2022-08-03T09:13:19;20.80;;;11.85;;
23370;SDS011;11858;51.056;3.712;2022-08-03T09:15:45;19.35;;;12.18;;
23370;SDS011;11858;51.056;3.712;2022-08-03T09:18:11;21.65;;;11.82;;
23370;SDS011;11858;51.056;3.712;2022-08-03T09:20:39;22.25;;;13.32;;
23370;SDS011;11858;51.056;3.712;2022-08-03T09:23:06;22.23;;;13.30;;
23370;SDS011;11858;51.056;3.712;2022-08-03T09:25:34;19.85;;;12.23;;
23370;SDS011;11858;51.056;3.712;2022-08-03T09:28:16;24.75;;;13.02;;
23370;SDS011;11858;51.056;3.712;2022-08-03T09:30:43;18.77;;;12.15;;
23370;SDS011;11858;51.056;3.712;2022-08-03T09:33:21;19.35;;;12.52;;
23370;SDS011;11858;51.056;3.712;2022-08-03T09:35:48;18.75;;;12.18;;
23370;SDS011;11858;51.056;3.712;2022-08-03T09:38:21;20.45;;;12.88;;
23370;SDS011;11858;51.056;3.712;2022-08-03T09:40:50;19.17;;;12.80;;
23370;SDS011;11858;51.056;3.712;2022-08-03T09:43:17;21.52;;;12.40;;
23370;SDS011;11858;51.056;3.712;2022-08-03T09:45:43;17.05;;;12.77;;
23370;SDS011;11858;51.056;3.712;2022-08-03T09:48:25;16.05;;;11.80;;
23370;SDS011;11858;51.056;3.712;2022-08-03T09:51:00;17.92;;;12.90;;
23370;SDS011;11858;51.056;3.712;2022-08-03T09:53:27;19.33;;;13.48;;
23370;SDS011;11858;51.056;3.712;2022-08-03T09:56:00;19.90;;;12.55;;
23370;SDS011;11858;51.056;3.712;2022-08-03T09:58:28;18.17;;;12.07;;
23370;SDS011;11858;51.056;3.712;2022-08-03T10:03:26;23.42;;;12.27;;
23370;SDS011;11858;51.056;3.712;2022-08-03T10:05:54;17.67;;;11.88;;
23370;SDS011;11858;51.056;3.712;2022-08-03T10:08:21;20.35;;;11.73;;
23370;SDS011;11858;51.056;3.712;2022-08-03T10:10:49;20.42;;;12.75;;
23370;SDS011;11858;51.056;3.712;2022-08-03T10:13:18;19.95;;;11.68;;
23370;SDS011;11858;51.056;3.712;2022-08-03T10:15:46;14.70;;;12.20;;
23370;SDS011;11858;51.056;3.712;2022-08-03T10:18:12;22.38;;;11.63;;
23370;SDS011;11858;51.056;3.712;2022-08-03T10:20:45;20.00;;;11.85;;
23370;SDS011;11858;51.056;3.712;2022-08-03T10:23:19;18.83;;;12.20;;
23370;SDS011;11858;51.056;3.712;2022-08-03T10:25:47;16.58;;;11.68;;
23370;SDS011;11858;51.056;3.712;2022-08-03T10:28:18;16.88;;;11.48;;
23370;SDS011;11858;51.056;3.712;2022-08-03T10:30:49;13.65;;;11.35;;
23370;SDS011;11858;51.056;3.712;2022-08-03T10:33:20;13.07;;;11.00;;
23370;SDS011;11858;51.056;3.712;2022-08-03T10:35:51;12.15;;;10.90;;
23370;SDS011;11858;51.056;3.712;2022-08-03T10:38:21;17.40;;;12.00;;
23370;SDS011;11858;51.056;3.712;2022-08-03T10:40:53;13.70;;;11.70;;
23370;SDS011;11858;51.056;3.712;2022-08-03T10:43:27;15.82;;;12.32;;
23370;SDS011;11858;51.056;3.712;2022-08-03T10:46:02;12.10;;;11.10;;
23370;SDS011;11858;51.056;3.712;2022-08-03T10:48:31;15.48;;;11.35;;
23370;SDS011;11858;51.056;3.712;2022-08-03T10:50:59;12.90;;;11.48;;
23370;SDS011;11858;51.056;3.712;2022-08-03T10:53:39;15.18;;;11.00;;
23370;SDS011;11858;51.056;3.712;2022-08-03T10:59:14;13.70;;;11.50;;
23370;SDS011;11858;51.056;3.712;2022-08-03T11:01:52;12.45;;;11.20;;
23370;SDS011;11858;51.056;3.712;2022-08-03T11:04:20;12.10;;;11.10;;
23370;SDS011;11858;51.056;3.712;2022-08-03T11:09:41;13.18;;;11.85;;
23370;SDS011;11858;51.056;3.712;2022-08-03T11:14:46;12.68;;;11.00;;
23370;SDS011;11858;51.056;3.712;2022-08-03T11:17:13;13.48;;;11.13;;
23370;SDS011;11858;51.056;3.712;2022-08-03T11:19:44;17.10;;;11.88;;
23370;SDS011;11858;51.056;3.712;2022-08-03T11:22:12;12.60;;;10.68;;
23370;SDS011;11858;51.056;3.712;2022-08-03T11:27:15;12.48;;;10.98;;
23370;SDS011;11858;51.056;3.712;2022-08-03T11:40:41;14.38;;;11.15;;
23370;SDS011;11858;51.056;3.712;2022-08-03T11:43:09;11.52;;;10.30;;
23370;SDS011;11858;51.056;3.712;2022-08-03T11:46:07;12.82;;;11.27;;
23370;SDS011;11858;51.056;3.712;2022-08-03T11:48:45;14.18;;;10.45;;
23370;SDS011;11858;51.056;3.712;2022-08-03T11:51:22;15.15;;;11.10;;
23370;SDS011;11858;51.056;3.712;2022-08-03T11:53:51;15.60;;;10.85;;
23370;SDS011;11858;51.056;3.712;2022-08-03T11:56:21;11.52;;;10.45;;
23370;SDS011;11858;51.056;3.712;2022-08-03T11:58:48;18.77;;;11.20;;
23370;SDS011;11858;51.056;3.712;2022-08-03T12:01:20;12.18;;;10.63;;
23370;SDS011;11858;51.056;3.712;2022-08-03T12:03:47;15.05;;;11.27;;
23370;SDS011;11858;51.056;3.712;2022-08-03T12:06:14;17.90;;;11.45;;
23370;SDS011;11858;51.056;3.712;2022-08-03T12:08:42;17.52;;;10.50;;
23370;SDS011;11858;51.056;3.712;2022-08-03T12:11:09;13.95;;;11.20;;
23370;SDS011;11858;51.056;3.712;2022-08-03T12:13:37;16.60;;;10.75;;
23370;SDS011;11858;51.056;3.712;2022-08-03T12:16:06;11.52;;;10.35;;
23370;SDS011;11858;51.056;3.712;2022-08-03T12:18:33;12.50;;;11.05;;
23370;SDS011;11858;51.056;3.712;2022-08-03T12:21:04;13.43;;;11.32;;
23370;SDS011;11858;51.056;3.712;2022-08-03T12:23:32;13.32;;;10.98;;
23370;SDS011;11858;51.056;3.712;2022-08-03T12:26:06;13.43;;;11.43;;
23370;SDS011;11858;51.056;3.712;2022-08-03T12:28:34;16.25;;;11.35;;
23370;SDS011;11858;51.056;3.712;2022-08-03T12:31:04;15.52;;;10.40;;
23370;SDS011;11858;51.056;3.712;2022-08-03T12:33:52;13.95;;;11.18;;
23370;SDS011;11858;51.056;3.712;2022-08-03T12:36:22;15.23;;;11.27;;
23370;SDS011;11858;51.056;3.712;2022-08-03T12:38:58;15.95;;;11.18;;
23370;SDS011;11858;51.056;3.712;2022-08-03T12:41:27;13.63;;;11.82;;
23370;SDS011;11858;51.056;3.712;2022-08-03T12:43:58;12.85;;;11.68;;
23370;SDS011;11858;51.056;3.712;2022-08-03T12:46:28;13.65;;;11.05;;
23370;SDS011;11858;51.056;3.712;2022-08-03T12:48:56;15.60;;;10.63;;
23370;SDS011;11858;51.056;3.712;2022-08-03T12:51:24;12.95;;;10.70;;
23370;SDS011;11858;51.056;3.712;2022-08-03T12:53:52;19.10;;;11.10;;
23370;SDS011;11858;51.056;3.712;2022-08-03T12:56:18;12.70;;;10.57;;
23370;SDS011;11858;51.056;3.712;2022-08-03T12:58:45;11.80;;;10.48;;
23370;SDS011;11858;51.056;3.712;2022-08-03T13:01:17;11.38;;;10.30;;
23370;SDS011;11858;51.056;3.712;2022-08-03T13:03:46;11.93;;;10.20;;
23370;SDS011;11858;51.056;3.712;2022-08-03T13:06:14;15.95;;;10.40;;
23370;SDS011;11858;51.056;3.712;2022-08-03T13:08:45;15.68;;;9.75;;
23370;SDS011;11858;51.056;3.712;2022-08-03T13:13:49;14.00;;;10.30;;
23370;SDS011;11858;51.056;3.712;2022-08-03T13:16:15;14.57;;;10.40;;
23370;SDS011;11858;51.056;3.712;2022-08-03T13:18:41;13.93;;;10.30;;
23370;SDS011;11858;51.056;3.712;2022-08-03T13:21:07;19.08;;;10.13;;
23370;SDS011;11858;51.056;3.712;2022-08-03T13:23:33;14.00;;;10.30;;
23370;SDS011;11858;51.056;3.712;2022-08-03T13:25:58;18.67;;;10.95;;
23370;SDS011;11858;51.056;3.712;2022-08-03T13:28:24;17.58;;;10.90;;
23370;SDS011;11858;51.056;3.712;2022-08-03T13:30:50;11.75;;;10.30;;
23370;SDS011;11858;51.056;3.712;2022-08-03T13:33:18;11.13;;;10.00;;
23370;SDS011;11858;51.056;3.712;2022-08-03T13:35:44;12.30;;;10.70;;
23370;SDS011;11858;51.056;3.712;2022-08-03T13:38:09;13.27;;;10.48;;
23370;SDS011;11858;51.056;3.712;2022-08-03T13:40:35;20.40;;;10.05;;
23370;SDS011;11858;51.056;3.712;2022-08-03T13:43:02;12.85;;;10.85;;
23370;SDS011;11858;51.056;3.712;2022-08-03T13:45:28;14.13;;;10.88;;
23370;SDS011;11858;51.056;3.712;2022-08-03T13:47:54;11.55;;;10.35;;
23370;SDS011;11858;51.056;3.712;2022-08-03T13:50:20;11.50;;;10.15;;
23370;SDS011;11858;51.056;3.712;2022-08-03T13:52:46;10.90;;;9.90;;
23370;SDS011;11858;51.056;3.712;2022-08-03T13:55:11;11.95;;;10.68;;
23370;SDS011;11858;51.056;3.712;2022-08-03T13:57:37;16.05;;;11.20;;
23370;SDS011;11858;51.056;3.712;2022-08-03T14:00:04;13.82;;;11.27;;
23370;SDS011;11858;51.056;3.712;2022-08-03T14:02:30;13.48;;;11.50;;
23370;SDS011;11858;51.056;3.712;2022-08-03T14:04:56;13.95;;;12.68;;
23370;SDS011;11858;51.056;3.712;2022-08-03T14:07:22;13.07;;;11.70;;
23370;SDS011;11858;51.056;3.712;2022-08-03T14:09:48;13.27;;;12.10;;
23370;SDS011;11858;51.056;3.712;2022-08-03T14:12:14;17.38;;;12.82;;
23370;SDS011;11858;51.056;3.712;2022-08-03T14:14:39;16.52;;;13.02;;
23370;SDS011;11858;51.056;3.712;2022-08-03T14:17:05;13.95;;;12.70;;
23370;SDS011;11858;51.056;3.712;2022-08-03T14:19:31;13.75;;;12.45;;
23370;SDS011;11858;51.056;3.712;2022-08-03T14:21:57;18.05;;;12.68;;
23370;SDS011;11858;51.056;3.712;2022-08-03T14:24:23;14.80;;;12.40;;
23370;SDS011;11858;51.056;3.712;2022-08-03T14:26:49;13.38;;;12.20;;
23370;SDS011;11858;51.056;3.712;2022-08-03T14:29:15;15.98;;;12.00;;
23370;SDS011;11858;51.056;3.712;2022-08-03T14:31:40;13.40;;;12.13;;
23370;SDS011;11858;51.056;3.712;2022-08-03T14:34:06;13.73;;;12.40;;
23370;SDS011;11858;51.056;3.712;2022-08-03T14:36:32;14.95;;;13.18;;
23370;SDS011;11858;51.056;3.712;2022-08-03T14:38:58;13.80;;;12.60;;
23370;SDS011;11858;51.056;3.712;2022-08-03T14:41:24;13.85;;;12.75;;
23370;SDS011;11858;51.056;3.712;2022-08-03T14:43:49;14.00;;;12.60;;
23370;SDS011;11858;51.056;3.712;2022-08-03T14:46:16;13.18;;;12.05;;
23370;SDS011;11858;51.056;3.712;2022-08-03T14:48:41;13.48;;;12.35;;
23370;SDS011;11858;51.056;3.712;2022-08-03T14:51:07;13.45;;;12.45;;
23370;SDS011;11858;51.056;3.712;2022-08-03T14:53:34;17.83;;;13.30;;
23370;SDS011;11858;51.056;3.712;2022-08-03T14:56:00;16.25;;;13.20;;
23370;SDS011;11858;51.056;3.712;2022-08-03T14:58:26;13.90;;;12.80;;
23370;SDS011;11858;51.056;3.712;2022-08-03T15:00:52;14.35;;;13.10;;
23370;SDS011;11858;51.056;3.712;2022-08-03T15:03:19;13.52;;;12.25;;
23370;SDS011;11858;51.056;3.712;2022-08-03T15:05:50;14.10;;;12.98;;